RomaniaFixed distance
Transylvania Half Hundred
24 May2025
Distance
50km
Finishers
410328 men82 women
Winning time
5:44:11h
Median pace
4.65km/h
Pace distribution
410 finishers · 2.77–8.72 km/h · mean 4.78
Every finisher ran the same 50 km course, so these paces are directly comparable.
Histogram of finisher pace. 410 finishers ranged from 2.77 to 8.72 kilometres per hour, with a mean of 4.78 and a median of 4.65. The busiest band is 4.0 to 4.5 kilometres per hour, with 87 finishers.
Results
Ranks 51–100 of 410
| Rank | Runner | Time | Pace | Cat. | Placing |
|---|---|---|---|---|---|
| 51 | Runforyourlife | 8:32:19h | 5.86 | M23 | 41st M · 19th M23 |
| 52 | 8:33:34h | 5.84 | M40 | 42nd M · 8th M40 | |
| 53 | 8:33:35h | 5.84 | M23 | 43rd M · 20th M23 | |
| 54 | Trailrunning Academy | 8:33:41h | 5.84 | M23 | 44th M · 21st M23 |
| 55 | 8:34:55h | 5.83 | M23 | 45th M · 22nd M23 | |
| 56 | 8:35:55h | 5.82 | M23 | 46th M · 23rd M23 | |
| 57 | UTT | 8:36:11h | 5.81 | M50 | 47th M · 1st M50 |
| 58 | 8:36:19h | 5.81 | M45 | 48th M · 4th M45 | |
| 59 | 8:37:28h | 5.80 | M40 | 49th M · 9th M40 | |
| 60 | MY Kinetic Team | 8:37:43h | 5.79 | M23 | 50th M · 24th M23 |
| 60 | 8:37:43h | 5.79 | M50 | 50th M · 2nd M50 | |
| 62 | Trail Running Academy | 8:38:08h | 5.79 | M35 | 52nd M · 12th M35 |
| 63 | Trailexperience | 8:39:39h | 5.77 | M50 | 53rd M · 3rd M50 |
| 64 | Trailexperience | 8:39:40h | 5.77 | M50 | 54th M · 4th M50 |
| 65 | 8:39:53h | 5.77 | M23 | 55th M · 25th M23 | |
| 66 | 8:41:02h | 5.76 | M23 | 56th M · 26th M23 | |
| 67 | Alergam Prin Padure | 8:43:10h | 5.73 | M23 | 57th M · 27th M23 |
| 68 | Biri4Bairi | 8:43:38h | 5.73 | M45 | 58th M · 5th M45 |
| 69 | 8:43:39h | 5.73 | M35 | 59th M · 13th M35 | |
| 70 | 8:44:28h | 5.72 | M40 | 60th M · 10th M40 | |
| 71 | 8:45:02h | 5.71 | M35 | 61st M · 14th M35 | |
| 72 | 8:46:29h | 5.70 | M23 | 62nd M · 28th M23 | |
| 73 | 8:47:54h | 5.68 | M40 | 63rd M · 11th M40 | |
| 74 | Mad Goats | 8:48:24h | 5.68 | M40 | 64th M · 12th M40 |
| 75 | 8:49:50h | 5.66 | M40 | 65th M · 13th M40 | |
| 76 | 8:50:39h | 5.65 | M40 | 66th M · 14th M40 | |
| 77 | Vo2Max | 8:51:40h | 5.64 | M45 | 67th M · 6th M45 |
| 78 | 8:52:41h | 5.63 | M23 | 68th M · 29th M23 | |
| 79 | 8:52:54h | 5.63 | M45 | 69th M · 7th M45 | |
| 80 | Mykinetic Team | 8:53:38h | 5.62 | M23 | 70th M · 30th M23 |
| 81 | Kailashka Dolina | 8:54:18h | 5.62 | M23 | 71st M · 31st M23 |
| 82 | Team Sport Spirit | 8:54:35h | 5.61 | W40 | 11th F · 3rd W40 |
| 83 | Engineer Runners | 8:55:56h | 5.60 | M23 | 72nd M · 32nd M23 |
| 84 | 8:58:46h | 5.57 | M35 | 73rd M · 15th M35 | |
| 85 | Mures Runners | 9:01:25h | 5.54 | M55 | 74th M · 2nd M55 |
| 86 | Sportguru | 9:03:47h | 5.52 | W23 | 12th F · 6th W23 |
| 87 | Crazy Rush | 9:05:37h | 5.50 | M40 | 75th M · 15th M40 |
| 88 | Shetland AAC | 9:05:40h | 5.50 | W50 | 13th F · 1st W50 |
| 89 | Quoicouteam | 9:09:14h | 5.46 | MU23 | 76th M · 1st MU23 |
| 90 | 321Sport | 9:09:48h | 5.46 | M35 | 77th M · 16th M35 |
| 91 | 9:09:56h | 5.46 | M35 | 78th M · 17th M35 | |
| 92 | STG Zalau | 9:10:50h | 5.45 | W23 | 14th F · 7th W23 |
| 93 | Mad Goats - Athlokinisi | 9:12:18h | 5.43 | M45 | 79th M · 8th M45 |
| 94 | 9:13:10h | 5.42 | M23 | 80th M · 33rd M23 | |
| 95 | 9:13:11h | 5.42 | M35 | 81st M · 18th M35 | |
| 96 | 9:14:06h | 5.41 | W40 | 15th F · 4th W40 | |
| 97 | 9:17:09h | 5.38 | M35 | 82nd M · 19th M35 | |
| 98 | 9:17:36h | 5.38 | M40 | 83rd M · 16th M40 | |
| 99 | Asociația Alergare MO8... | 9:18:33h | 5.37 | M55 | 84th M · 3rd M55 |
| 100 | Serpas Originale | 9:20:43h | 5.35 | M50 | 85th M · 5th M50 |
- 51Runforyourlife41st M · 19th M23Time8:32:19hPace5.86Cat.M23
- 5242nd M · 8th M40Time8:33:34hPace5.84Cat.M40
- 5343rd M · 20th M23Time8:33:35hPace5.84Cat.M23
- 54Trailrunning Academy44th M · 21st M23Time8:33:41hPace5.84Cat.M23
- 5545th M · 22nd M23Time8:34:55hPace5.83Cat.M23
- 5646th M · 23rd M23Time8:35:55hPace5.82Cat.M23
- 57UTT47th M · 1st M50Time8:36:11hPace5.81Cat.M50
- 5848th M · 4th M45Time8:36:19hPace5.81Cat.M45
- 5949th M · 9th M40Time8:37:28hPace5.80Cat.M40
- 60MY Kinetic Team50th M · 24th M23Time8:37:43hPace5.79Cat.M23
- 6050th M · 2nd M50Time8:37:43hPace5.79Cat.M50
- 62Trail Running Academy52nd M · 12th M35Time8:38:08hPace5.79Cat.M35
- 63Trailexperience53rd M · 3rd M50Time8:39:39hPace5.77Cat.M50
- 64Trailexperience54th M · 4th M50Time8:39:40hPace5.77Cat.M50
- 6555th M · 25th M23Time8:39:53hPace5.77Cat.M23
- 6656th M · 26th M23Time8:41:02hPace5.76Cat.M23
- 67Alergam Prin Padure57th M · 27th M23Time8:43:10hPace5.73Cat.M23
- 68Biri4Bairi58th M · 5th M45Time8:43:38hPace5.73Cat.M45
- 6959th M · 13th M35Time8:43:39hPace5.73Cat.M35
- 7060th M · 10th M40Time8:44:28hPace5.72Cat.M40
- 7161st M · 14th M35Time8:45:02hPace5.71Cat.M35
- 7262nd M · 28th M23Time8:46:29hPace5.70Cat.M23
- 7363rd M · 11th M40Time8:47:54hPace5.68Cat.M40
- 74Mad Goats64th M · 12th M40Time8:48:24hPace5.68Cat.M40
- 7565th M · 13th M40Time8:49:50hPace5.66Cat.M40
- 7666th M · 14th M40Time8:50:39hPace5.65Cat.M40
- 77Vo2Max67th M · 6th M45Time8:51:40hPace5.64Cat.M45
- 7868th M · 29th M23Time8:52:41hPace5.63Cat.M23
- 7969th M · 7th M45Time8:52:54hPace5.63Cat.M45
- 80Mykinetic Team70th M · 30th M23Time8:53:38hPace5.62Cat.M23
- 81Kailashka Dolina71st M · 31st M23Time8:54:18hPace5.62Cat.M23
- 82Team Sport Spirit11th F · 3rd W40Time8:54:35hPace5.61Cat.W40
- 83Engineer Runners72nd M · 32nd M23Time8:55:56hPace5.60Cat.M23
- 8473rd M · 15th M35Time8:58:46hPace5.57Cat.M35
- 85Mures Runners74th M · 2nd M55Time9:01:25hPace5.54Cat.M55
- 86Sportguru12th F · 6th W23Time9:03:47hPace5.52Cat.W23
- 87Crazy Rush75th M · 15th M40Time9:05:37hPace5.50Cat.M40
- 88Shetland AAC13th F · 1st W50Time9:05:40hPace5.50Cat.W50
- 89Quoicouteam76th M · 1st MU23Time9:09:14hPace5.46Cat.MU23
- 90321Sport77th M · 16th M35Time9:09:48hPace5.46Cat.M35
- 9178th M · 17th M35Time9:09:56hPace5.46Cat.M35
- 92STG Zalau14th F · 7th W23Time9:10:50hPace5.45Cat.W23
- 93Mad Goats - Athlokinisi79th M · 8th M45Time9:12:18hPace5.43Cat.M45
- 9480th M · 33rd M23Time9:13:10hPace5.42Cat.M23
- 9581st M · 18th M35Time9:13:11hPace5.42Cat.M35
- 9615th F · 4th W40Time9:14:06hPace5.41Cat.W40
- 9782nd M · 19th M35Time9:17:09hPace5.38Cat.M35
- 9883rd M · 16th M40Time9:17:36hPace5.38Cat.M40
- 99Asociația Alergare MO8...84th M · 3rd M55Time9:18:33hPace5.37Cat.M55
- 100Serpas Originale85th M · 5th M50Time9:20:43hPace5.35Cat.M50
Showing ranks 51–100 of 410